Portada
METAR-TAF:

METAR-TAF

Aeroports :

Al-Riyad, Aràbia Saudita

latitud: 24-43N, longitud: 046-44E, altitud: 635 m

METAR: manca

Hora: 10:31 (07:31 UTC)

Pronòstic

L'informe es va fer fa 8 hores i 31 minuts, a les 23:00 UTC
Pronòstic vàlid del 20 a les 00 UTC al 21 a les 06 UTC
Vent 3 kt amb direcció variable
Visibilitat: 7000 m
Evolucionant progressivament
l' 20 a les 06 UTC al 20 a les 08 UTC
Vent 8 kt del Nord amb ràfegues de 18 kt
Temporalment
l' 20 a les 06 UTC al 20 a les 16 UTC
Visibilitat: 4000 m
Pols estès, torb alta de pols
Probabilitat 40% :
Temporalment
l' 20 a les 08 UTC al 20 a les 14 UTC
Visibilitat: 2000 m

TAF: OERY 192300Z 2000/2106 VRB03KT 7000 NSC BECMG 2006/2008 36008G18KT TEMPO 2006/2016 4000 DU BLDU PROB40 TEMPO 2008/2014 2000

Observacions i pronòstics meteorològics de més de 4000 aeroports (METAR i TAF).

Les estacions disponibles són els punts grocs i vermells al mapa.

Posi el ratolí al punt desitjat per veure el nom de l'estació.

Feu clic per veure les observacions i els pronòstics meteorològics.

Per canviar el mapa: feu clic els botons verds amb una creu de color negre per apropar; al botó verd amb un guió per allunyar la imatge; o en les fletxes verdes per a mapes adjacents.


METAR-TAF: